createdAt,value
2022-12-04T00:01:24.788Z,66.30
2022-12-04T00:04:00.243Z,53.13
2022-12-04T00:06:28.149Z,62.60
2022-12-04T00:08:55.455Z,60.75
2022-12-04T00:11:25.547Z,62.30
2022-12-04T00:13:52.814Z,73.60
2022-12-04T00:16:23.234Z,74.55
2022-12-04T00:18:51.044Z,69.95
2022-12-04T00:21:19.543Z,69.45
2022-12-04T00:23:46.994Z,69.47
2022-12-04T00:26:19.322Z,71.83
2022-12-04T00:28:47.000Z,62.20
2022-12-04T00:31:18.015Z,71.18
2022-12-04T00:33:48.718Z,61.33
2022-12-04T00:36:18.588Z,71.95
2022-12-04T00:38:46.210Z,76.17
2022-12-04T00:41:16.338Z,74.25
2022-12-04T00:43:46.029Z,67.00
2022-12-04T00:46:13.447Z,74.20
2022-12-04T00:48:41.218Z,64.43
2022-12-04T00:51:12.442Z,74.50
2022-12-04T00:53:44.423Z,63.97
2022-12-04T00:56:18.452Z,75.93
2022-12-04T00:58:46.423Z,58.67
2022-12-04T01:01:16.365Z,75.93
2022-12-04T01:03:44.386Z,69.03
2022-12-04T01:06:33.112Z,76.85
2022-12-04T01:09:07.124Z,73.97
2022-12-04T01:11:35.644Z,73.20
2022-12-04T01:14:04.622Z,71.13
2022-12-04T01:16:40.242Z,66.17
2022-12-04T01:19:11.261Z,64.35
2022-12-04T01:21:42.736Z,79.47
2022-12-04T01:24:15.733Z,62.50
2022-12-04T01:26:50.089Z,66.75
2022-12-04T01:29:20.728Z,77.47
2022-12-04T01:31:57.618Z,76.97
2022-12-04T01:34:25.628Z,79.63
2022-12-04T01:36:53.689Z,66.28
2022-12-04T01:39:21.172Z,74.38
2022-12-04T01:41:48.923Z,76.53
2022-12-04T01:44:25.742Z,66.00
2022-12-04T01:46:57.999Z,60.17
2022-12-04T01:49:37.725Z,72.18
2022-12-04T01:52:14.498Z,63.75
2022-12-04T01:54:50.623Z,76.60
2022-12-04T01:57:27.105Z,77.20
2022-12-04T02:00:01.181Z,71.68
2022-12-04T02:02:40.622Z,70.15
2022-12-04T02:05:15.488Z,84.63
2022-12-04T02:07:45.636Z,69.87
2022-12-04T02:10:14.093Z,75.10
2022-12-04T02:12:53.124Z,71.20
2022-12-04T02:15:45.328Z,70.18
2022-12-04T02:18:34.238Z,81.28
2022-12-04T02:21:27.316Z,73.17
2022-12-04T02:24:19.487Z,71.88
2022-12-04T02:26:57.300Z,74.82
2022-12-04T02:29:55.273Z,71.13
2022-12-04T02:32:37.978Z,77.40
2022-12-04T02:35:33.609Z,70.93
2022-12-04T02:38:29.734Z,76.80
2022-12-04T02:41:17.324Z,76.68
2022-12-04T02:44:02.668Z,74.22
2022-12-04T02:46:39.424Z,74.88
2022-12-04T02:49:17.202Z,70.27
2022-12-04T02:51:47.496Z,74.55
2022-12-04T02:54:35.148Z,76.85
2022-12-04T02:57:05.524Z,70.63
2022-12-04T02:59:40.445Z,82.38
2022-12-04T03:02:15.336Z,69.90
2022-12-04T03:04:44.579Z,74.45
2022-12-04T03:07:20.989Z,77.68
2022-12-04T03:10:20.385Z,71.22
2022-12-04T03:12:53.261Z,72.07
2022-12-04T03:15:31.758Z,70.87
2022-12-04T03:18:10.567Z,77.00
2022-12-04T03:20:39.801Z,76.43
2022-12-04T03:23:28.878Z,75.00
2022-12-04T03:26:01.987Z,74.70
2022-12-04T03:28:40.911Z,70.27
2022-12-04T03:31:14.958Z,71.57
2022-12-04T03:33:46.906Z,71.40
2022-12-04T03:36:23.456Z,71.25
2022-12-04T03:38:57.920Z,70.10
2022-12-04T03:41:49.596Z,63.30
2022-12-04T03:45:00.085Z,75.32
2022-12-04T03:47:43.445Z,68.20
2022-12-04T03:50:35.067Z,74.03
2022-12-04T03:53:20.916Z,72.32
2022-12-04T03:55:57.818Z,71.50
2022-12-04T03:58:30.396Z,69.55
2022-12-04T04:01:00.188Z,69.03
2022-12-04T04:03:34.364Z,73.70
2022-12-04T04:06:25.733Z,80.22
2022-12-04T04:08:58.750Z,69.37
2022-12-04T04:11:36.603Z,74.57
2022-12-04T04:14:36.954Z,72.80
2022-12-04T04:17:31.288Z,72.88
2022-12-04T04:20:29.364Z,74.10
2022-12-04T04:23:17.907Z,67.60
2022-12-04T04:25:46.893Z,78.10
2022-12-04T04:28:34.284Z,79.43
2022-12-04T04:31:10.620Z,75.45
2022-12-04T04:33:49.681Z,81.38
2022-12-04T04:36:25.428Z,68.47
2022-12-04T04:39:14.677Z,65.28
2022-12-04T04:41:54.661Z,74.50
2022-12-04T04:44:29.272Z,72.78
2022-12-04T04:47:00.809Z,75.10
2022-12-04T04:49:32.837Z,74.97
2022-12-04T04:52:01.210Z,80.30
2022-12-04T04:54:30.246Z,80.72
2022-12-04T04:56:59.448Z,79.20
2022-12-04T04:59:26.930Z,73.57
2022-12-04T05:01:54.184Z,81.03
2022-12-04T05:04:21.298Z,75.22
2022-12-04T05:06:50.937Z,74.80
2022-12-04T05:09:20.632Z,61.60
2022-12-04T05:11:47.993Z,73.88
2022-12-04T05:14:15.325Z,67.73
2022-12-04T05:16:42.592Z,79.53
2022-12-04T05:19:29.588Z,69.00
2022-12-04T05:21:57.647Z,75.63
2022-12-04T05:24:25.131Z,69.93
2022-12-04T05:26:54.281Z,75.03
2022-12-04T05:29:22.386Z,66.97
2022-12-04T05:31:52.081Z,67.93
2022-12-04T05:34:19.579Z,63.08
2022-12-04T05:36:46.623Z,74.95
2022-12-04T05:39:14.778Z,72.23
2022-12-04T05:41:42.522Z,72.80
2022-12-04T05:44:12.227Z,70.25
2022-12-04T05:46:42.497Z,70.63
2022-12-04T05:49:12.674Z,79.10
2022-12-04T05:51:40.026Z,67.90
2022-12-04T05:54:10.585Z,71.80
2022-12-04T05:56:47.568Z,75.18
2022-12-04T05:59:17.996Z,72.65
2022-12-04T06:01:47.624Z,72.60
2022-12-04T06:04:14.842Z,70.87
2022-12-04T06:06:41.778Z,75.00
2022-12-04T06:09:11.913Z,81.18
2022-12-04T06:11:40.481Z,73.80
2022-12-04T06:14:10.237Z,67.60
2022-12-04T06:16:39.392Z,70.23
2022-12-04T06:19:09.288Z,66.57
2022-12-04T06:21:38.967Z,73.40
2022-12-04T06:24:06.672Z,74.95
2022-12-04T06:26:33.822Z,69.90
2022-12-04T06:29:01.242Z,67.80
2022-12-04T06:31:29.850Z,64.80
2022-12-04T06:33:57.905Z,81.18
2022-12-04T06:36:27.441Z,67.53
2022-12-04T06:38:56.774Z,66.00
2022-12-04T06:41:25.397Z,73.70
2022-12-04T06:43:52.429Z,68.25
2022-12-04T06:46:24.999Z,74.28
2022-12-04T06:48:53.763Z,63.67
2022-12-04T06:51:26.483Z,65.13
2022-12-04T06:53:53.785Z,72.70
2022-12-04T06:56:23.372Z,71.13
2022-12-04T06:58:52.944Z,72.70
2022-12-04T07:01:23.321Z,72.75
2022-12-04T07:03:52.783Z,73.32
2022-12-04T07:06:37.524Z,68.10
2022-12-04T07:09:10.669Z,75.88
2022-12-04T07:11:38.780Z,75.22
2022-12-04T07:14:05.716Z,75.05
2022-12-04T07:16:39.957Z,73.30
2022-12-04T07:19:12.458Z,65.90
2022-12-04T07:21:39.449Z,62.63
2022-12-04T07:24:06.581Z,67.18
2022-12-04T07:26:33.470Z,73.55
2022-12-04T07:29:00.747Z,64.78
2022-12-04T07:31:28.980Z,69.60
2022-12-04T07:33:56.843Z,66.28
2022-12-04T07:36:24.827Z,78.60
2022-12-04T07:38:52.113Z,72.20
2022-12-04T07:41:22.092Z,73.25
2022-12-04T07:43:49.243Z,71.50
2022-12-04T07:46:19.456Z,72.32
2022-12-04T07:48:49.134Z,65.70
2022-12-04T07:51:25.341Z,69.57
2022-12-04T07:53:53.472Z,74.90
2022-12-04T07:56:22.903Z,67.13
2022-12-04T07:58:50.470Z,71.32
2022-12-04T08:01:27.294Z,66.32
2022-12-04T08:03:57.079Z,71.85
2022-12-04T08:06:25.616Z,63.13
2022-12-04T08:08:53.286Z,66.13
2022-12-04T08:11:25.587Z,62.70
2022-12-04T08:14:00.799Z,64.50
2022-12-04T08:16:29.870Z,68.10
2022-12-04T08:18:57.468Z,64.38
2022-12-04T08:21:26.689Z,62.90
2022-12-04T08:23:55.149Z,63.45
2022-12-04T08:26:23.890Z,62.22
2022-12-04T08:28:53.623Z,62.72
2022-12-04T08:31:26.725Z,68.45
2022-12-04T08:33:55.406Z,72.23
2022-12-04T08:36:22.439Z,65.15
2022-12-04T08:38:49.784Z,74.40
2022-12-04T08:41:19.087Z,70.93
2022-12-04T08:43:46.355Z,66.30
2022-12-04T08:46:16.190Z,62.97
2022-12-04T08:48:46.859Z,72.55
2022-12-04T08:51:16.760Z,72.60
2022-12-04T08:53:43.786Z,57.50
2022-12-04T08:56:10.993Z,71.18
2022-12-04T08:58:38.492Z,60.83
2022-12-04T09:01:13.496Z,69.43
2022-12-04T09:03:41.415Z,74.95
2022-12-04T09:06:12.104Z,67.85
2022-12-04T09:08:39.242Z,72.75
2022-12-04T09:11:12.519Z,71.07
2022-12-04T09:13:40.888Z,69.70
2022-12-04T09:16:10.461Z,62.33
2022-12-04T09:18:38.677Z,54.28
2022-12-04T09:21:08.643Z,69.30
2022-12-04T09:23:36.740Z,72.07
2022-12-04T09:26:04.738Z,73.43
2022-12-04T09:28:31.588Z,72.07
2022-12-04T09:30:59.275Z,64.50
2022-12-04T09:33:26.510Z,64.07
2022-12-04T09:35:53.505Z,74.00
2022-12-04T09:38:20.820Z,70.03
2022-12-04T09:41:21.241Z,64.00
2022-12-04T09:43:59.212Z,64.75
2022-12-04T09:46:40.129Z,59.40
2022-12-04T09:49:25.499Z,71.70
2022-12-04T09:51:56.273Z,67.85
2022-12-04T09:54:29.738Z,65.90
2022-12-04T09:57:21.101Z,67.25
2022-12-04T09:59:51.127Z,70.50
2022-12-04T10:02:42.006Z,66.70
2022-12-04T10:05:18.306Z,65.65
2022-12-04T10:08:05.121Z,63.55
2022-12-04T10:10:41.404Z,55.60
2022-12-04T10:13:26.885Z,65.57
2022-12-04T10:16:16.051Z,52.70
2022-12-04T10:19:02.133Z,63.10
2022-12-04T10:21:54.814Z,52.60
2022-12-04T10:24:51.880Z,61.17
2022-12-04T10:27:39.750Z,53.60
2022-12-04T10:30:23.188Z,51.13
2022-12-04T10:33:16.388Z,56.25
2022-12-04T10:35:47.654Z,53.75
2022-12-04T10:38:42.629Z,57.10
2022-12-04T10:41:45.307Z,53.60
2022-12-04T10:44:17.738Z,53.57
2022-12-04T10:46:46.667Z,47.97
2022-12-04T10:49:20.222Z,52.90
2022-12-04T10:51:47.819Z,50.00
2022-12-04T10:54:30.296Z,54.15
2022-12-04T10:57:02.160Z,57.03
2022-12-04T10:59:29.942Z,56.95
2022-12-04T11:02:06.892Z,53.58
2022-12-04T11:04:35.454Z,50.47
2022-12-04T11:07:16.092Z,48.97
2022-12-04T11:09:43.008Z,50.17
2022-12-04T11:12:21.749Z,41.97
2022-12-04T11:14:58.949Z,38.38
2022-12-04T11:17:26.019Z,51.70
2022-12-04T11:20:17.323Z,52.47
2022-12-04T11:23:14.796Z,46.57
2022-12-04T11:25:48.124Z,50.00
2022-12-04T11:28:42.832Z,50.45
2022-12-04T11:31:10.753Z,46.50
2022-12-04T11:33:59.099Z,42.47
2022-12-04T11:36:34.193Z,39.37
2022-12-04T11:39:11.675Z,34.92
2022-12-04T11:41:38.988Z,37.33
2022-12-04T11:44:07.584Z,36.70
2022-12-04T11:46:35.247Z,34.60
2022-12-04T11:49:03.589Z,40.17
2022-12-04T11:51:30.456Z,39.40
2022-12-04T11:54:07.365Z,43.72
2022-12-04T11:56:38.897Z,40.45
2022-12-04T11:59:33.318Z,37.00
2022-12-04T12:02:03.141Z,36.70
2022-12-04T12:04:51.385Z,36.63
2022-12-04T12:07:18.191Z,36.30
2022-12-04T12:10:18.995Z,33.70
2022-12-04T12:12:51.723Z,31.45
2022-12-04T12:15:25.009Z,37.93
2022-12-04T12:18:09.738Z,36.85
2022-12-04T12:21:20.059Z,34.40
2022-12-04T12:24:20.707Z,34.70
2022-12-04T12:27:36.945Z,32.08
2022-12-04T12:30:15.854Z,40.07
2022-12-04T12:32:54.516Z,32.22
2022-12-04T12:35:31.259Z,33.92
2022-12-04T12:38:10.802Z,30.10
2022-12-04T12:40:47.399Z,29.38
2022-12-04T12:43:23.108Z,32.73
2022-12-04T12:46:00.403Z,35.42
2022-12-04T12:48:32.628Z,29.60
2022-12-04T12:51:29.138Z,29.20
2022-12-04T12:54:00.236Z,29.83
2022-12-04T12:56:46.119Z,30.80
2022-12-04T12:59:24.165Z,30.52
2022-12-04T13:02:01.456Z,33.72
2022-12-04T13:04:43.988Z,32.90
2022-12-04T13:07:16.649Z,30.52
2022-12-04T13:09:56.644Z,27.93
2022-12-04T13:12:24.643Z,32.03
2022-12-04T13:14:51.577Z,30.50
2022-12-04T13:17:26.335Z,29.48
2022-12-04T13:19:57.467Z,32.35
2022-12-04T13:23:02.315Z,27.47
2022-12-04T13:25:34.225Z,30.52
2022-12-04T13:28:12.842Z,22.83
2022-12-04T13:30:48.528Z,26.38
2022-12-04T13:33:54.843Z,25.70
2022-12-04T13:36:48.998Z,28.77
2022-12-04T13:39:45.794Z,31.88
2022-12-04T13:42:39.100Z,30.63
2022-12-04T13:45:25.200Z,30.35
2022-12-04T13:48:03.326Z,26.90
2022-12-04T13:50:36.089Z,25.13
2022-12-04T13:53:04.123Z,24.35
2022-12-04T13:55:39.396Z,29.33
2022-12-04T13:58:12.293Z,24.25
2022-12-04T14:00:42.710Z,24.65
2022-12-04T14:03:27.535Z,26.77
2022-12-04T14:05:55.023Z,26.80
2022-12-04T14:08:39.429Z,21.95
2022-12-04T14:11:20.144Z,23.50
2022-12-04T14:14:01.177Z,27.00
2022-12-04T14:16:41.232Z,27.10
2022-12-04T14:19:09.173Z,25.95
2022-12-04T14:21:41.380Z,23.60
2022-12-04T14:24:37.218Z,25.83
2022-12-04T14:27:34.657Z,24.52
2022-12-04T14:30:02.576Z,26.60
2022-12-04T14:32:33.756Z,27.35
2022-12-04T14:35:02.425Z,26.92
2022-12-04T14:37:35.478Z,22.95
2022-12-04T14:40:09.677Z,25.98
2022-12-04T14:42:40.843Z,29.37
2022-12-04T14:45:26.786Z,27.55
2022-12-04T14:48:13.681Z,23.85
2022-12-04T14:51:12.041Z,26.35
2022-12-04T14:54:07.130Z,24.98
2022-12-04T14:57:19.387Z,25.87
2022-12-04T14:59:52.629Z,21.73
2022-12-04T15:02:32.025Z,24.05
2022-12-04T15:05:00.139Z,30.63
2022-12-04T15:07:31.723Z,34.20
2022-12-04T15:10:19.769Z,28.97
2022-12-04T15:12:52.616Z,29.10
2022-12-04T15:15:25.761Z,27.95
2022-12-04T15:18:10.190Z,32.40
2022-12-04T15:20:58.972Z,26.85
2022-12-04T15:23:44.057Z,27.93
2022-12-04T15:26:12.909Z,32.03
2022-12-04T15:28:51.420Z,31.92
2022-12-04T15:31:27.329Z,36.70
2022-12-04T15:34:04.026Z,37.53
2022-12-04T15:36:59.470Z,77.53
2022-12-04T15:39:28.498Z,51.58
2022-12-04T15:42:21.570Z,55.65
2022-12-04T15:45:01.073Z,33.45
2022-12-04T15:47:31.191Z,43.47
2022-12-04T15:50:31.745Z,37.57
2022-12-04T15:53:19.732Z,41.45
2022-12-04T15:55:53.111Z,32.30
2022-12-04T15:58:32.210Z,38.83
2022-12-04T16:01:05.189Z,42.80
2022-12-04T16:03:37.582Z,39.30
2022-12-04T16:06:28.947Z,42.75
2022-12-04T16:09:24.209Z,46.15
2022-12-04T16:12:19.405Z,38.97
2022-12-04T16:14:46.259Z,45.15
2022-12-04T16:17:14.124Z,49.60
2022-12-04T16:19:42.400Z,45.17
2022-12-04T16:22:23.713Z,52.58
2022-12-04T16:24:51.308Z,44.10
2022-12-04T16:27:22.550Z,38.25
2022-12-04T16:29:54.031Z,46.33
2022-12-04T16:32:36.017Z,51.17
2022-12-04T16:35:05.559Z,58.40
2022-12-04T16:37:32.624Z,54.58
2022-12-04T16:39:59.563Z,57.33
2022-12-04T16:42:29.708Z,58.97
2022-12-04T16:44:57.963Z,51.00
2022-12-04T16:47:24.913Z,55.13
2022-12-04T16:49:52.541Z,57.85
2022-12-04T16:52:20.311Z,56.13
2022-12-04T16:54:47.506Z,56.97
2022-12-04T16:57:14.503Z,61.78
2022-12-04T16:59:41.551Z,51.88
2022-12-04T17:02:17.164Z,53.13
2022-12-04T17:04:44.424Z,55.00
2022-12-04T17:07:14.797Z,52.57
2022-12-04T17:09:44.212Z,43.75
2022-12-04T17:12:11.211Z,54.92
2022-12-04T17:14:39.067Z,52.95
2022-12-04T17:17:06.177Z,54.45
2022-12-04T17:19:34.877Z,55.37
2022-12-04T17:22:01.959Z,52.08
2022-12-04T17:24:28.918Z,48.85
2022-12-04T17:26:55.771Z,43.90
2022-12-04T17:29:22.651Z,54.70
2022-12-04T17:31:49.671Z,63.13
2022-12-04T17:34:16.835Z,46.03
2022-12-04T17:36:43.779Z,50.25
2022-12-04T17:39:11.941Z,57.75
2022-12-04T17:41:39.880Z,58.40
2022-12-04T17:44:06.692Z,55.37
2022-12-04T17:46:33.662Z,50.42
2022-12-04T17:49:06.602Z,55.90
2022-12-04T17:51:37.833Z,48.60
2022-12-04T17:54:05.804Z,51.50
2022-12-04T17:56:36.068Z,51.47
2022-12-04T17:59:03.761Z,51.38
2022-12-04T18:01:31.861Z,55.78
2022-12-04T18:04:03.321Z,50.75
2022-12-04T18:06:36.643Z,54.17
2022-12-04T18:09:05.979Z,54.60
2022-12-04T18:11:35.156Z,57.97
2022-12-04T18:16:53.137Z,46.63
2022-12-04T18:19:22.658Z,47.83
2022-12-04T18:21:50.843Z,61.27
2022-12-04T18:24:17.917Z,45.72
2022-12-04T18:26:48.195Z,54.45
2022-12-04T18:29:18.850Z,45.88
2022-12-04T18:31:48.936Z,51.63
2022-12-04T18:34:16.422Z,50.00
2022-12-04T18:36:45.431Z,47.50
2022-12-04T18:39:18.472Z,52.10
2022-12-04T18:41:46.009Z,49.85
2022-12-04T18:44:13.034Z,48.75
2022-12-04T18:46:40.314Z,40.13
2022-12-04T18:49:09.305Z,48.25
2022-12-04T18:54:26.726Z,52.20
2022-12-04T18:56:53.832Z,46.22
2022-12-04T18:59:26.716Z,47.90
2022-12-04T19:01:54.644Z,44.65
2022-12-04T19:04:23.532Z,52.42
2022-12-04T19:06:53.979Z,47.53
2022-12-04T19:12:14.511Z,45.27
2022-12-04T19:14:41.573Z,51.92
2022-12-04T19:17:09.120Z,39.30
2022-12-04T19:19:36.699Z,44.25
2022-12-04T19:22:04.258Z,43.97
2022-12-04T19:24:31.315Z,47.70
2022-12-04T19:26:58.226Z,50.35
2022-12-04T19:29:25.168Z,43.72
2022-12-04T19:31:57.633Z,42.80
2022-12-04T19:34:27.400Z,45.15
2022-12-04T19:36:54.973Z,47.07
2022-12-04T19:39:27.376Z,44.88
2022-12-04T19:41:54.560Z,40.85
2022-12-04T19:47:10.575Z,44.72
2022-12-04T19:49:38.185Z,41.80
2022-12-04T19:52:05.523Z,43.42
2022-12-04T19:54:32.652Z,43.30
2022-12-04T19:56:59.779Z,35.83
2022-12-04T19:59:35.983Z,48.50
2022-12-04T20:02:05.231Z,40.43
2022-12-04T20:04:32.275Z,41.53
2022-12-04T20:06:59.196Z,40.33
2022-12-04T20:09:27.524Z,41.22
2022-12-04T20:11:54.571Z,41.47
2022-12-04T20:14:21.543Z,42.30
2022-12-04T20:16:48.820Z,47.17
2022-12-04T20:19:17.626Z,38.47
2022-12-04T20:21:46.123Z,44.30
2022-12-04T20:24:15.714Z,44.90
2022-12-04T20:26:44.431Z,44.83
2022-12-04T20:29:14.049Z,48.92
2022-12-04T20:31:44.553Z,54.58
2022-12-04T20:34:18.260Z,56.15
2022-12-04T20:36:51.969Z,46.85
2022-12-04T20:39:20.301Z,49.20
2022-12-04T20:41:47.241Z,52.20
2022-12-04T20:44:16.399Z,43.90
2022-12-04T20:46:46.191Z,50.45
2022-12-04T20:49:22.547Z,54.90
2022-12-04T20:51:56.014Z,58.00
2022-12-04T20:54:23.396Z,55.53
2022-12-04T20:56:54.748Z,61.22
2022-12-04T20:59:23.109Z,56.90
2022-12-04T21:01:51.899Z,56.95
2022-12-04T21:04:19.786Z,47.73
2022-12-04T21:06:47.064Z,64.90
2022-12-04T21:09:33.619Z,53.13
2022-12-04T21:12:02.157Z,50.08
2022-12-04T21:14:50.820Z,61.83
2022-12-04T21:17:24.074Z,62.70
2022-12-04T21:20:01.478Z,60.50
2022-12-04T21:22:38.437Z,59.47
2022-12-04T21:25:09.982Z,55.35
2022-12-04T21:27:38.071Z,60.03
2022-12-04T21:30:06.530Z,56.43
2022-12-04T21:32:36.889Z,60.00
2022-12-04T21:35:14.078Z,53.97
2022-12-04T21:37:41.924Z,55.92
2022-12-04T21:40:14.678Z,61.38
2022-12-04T21:42:44.996Z,57.33
2022-12-04T21:45:14.836Z,57.28
2022-12-04T21:47:42.929Z,52.42
2022-12-04T21:50:17.315Z,57.40
2022-12-04T21:53:14.294Z,61.15
2022-12-04T21:55:57.373Z,62.17
2022-12-04T21:58:29.263Z,63.20
2022-12-04T22:01:03.599Z,63.00
2022-12-04T22:03:31.687Z,52.70
2022-12-04T22:06:01.224Z,63.47
2022-12-04T22:08:30.102Z,62.33
2022-12-04T22:11:01.984Z,69.90
2022-12-04T22:13:29.816Z,68.53
2022-12-04T22:15:57.246Z,69.68
2022-12-04T22:18:24.583Z,66.70
2022-12-04T22:20:52.443Z,62.17
2022-12-04T22:23:20.016Z,57.00
2022-12-04T22:25:47.759Z,72.20
2022-12-04T22:28:15.740Z,67.72
2022-12-04T22:30:43.160Z,64.75
2022-12-04T22:33:11.784Z,59.93
2022-12-04T22:35:40.141Z,63.72
2022-12-04T22:38:10.345Z,63.38
2022-12-04T22:40:42.003Z,63.58
2022-12-04T22:43:12.493Z,62.08
2022-12-04T22:45:43.015Z,57.87
2022-12-04T22:48:14.791Z,67.20
2022-12-04T22:50:42.888Z,64.22
2022-12-04T22:53:18.470Z,59.90
2022-12-04T22:55:46.216Z,66.78
2022-12-04T22:58:21.240Z,58.00
2022-12-04T23:00:49.797Z,67.72
2022-12-04T23:03:20.052Z,61.17
2022-12-04T23:05:49.973Z,61.35
2022-12-04T23:08:21.555Z,64.88
2022-12-04T23:10:52.036Z,61.27
2022-12-04T23:13:27.118Z,59.00
2022-12-04T23:15:57.655Z,70.10
2022-12-04T23:18:28.142Z,60.85
2022-12-04T23:21:07.661Z,64.25
2022-12-04T23:23:38.073Z,63.10
2022-12-04T23:26:20.300Z,67.45
2022-12-04T23:28:48.909Z,61.58
2022-12-04T23:31:18.646Z,60.38
2022-12-04T23:33:48.495Z,62.72
2022-12-04T23:36:18.793Z,54.33
2022-12-04T23:38:48.586Z,58.85
2022-12-04T23:41:22.713Z,62.83
2022-12-04T23:43:51.345Z,59.92
2022-12-04T23:46:22.207Z,56.75
2022-12-04T23:48:52.632Z,56.80
2022-12-04T23:51:20.538Z,65.28
2022-12-04T23:53:50.009Z,63.47
2022-12-04T23:56:23.744Z,66.53
2022-12-04T23:58:52.993Z,56.85
